Time;durP1;ratioP1;P1;durP2;ratioP2;P2;SDS_P1;SDS_P2;PMS_P1;PMS_P2;Temp;Humidity;BMP_temperature;BMP_pressure;BME280_temperature;BME280_humidity;BME280_pressure;Samples;Min_cycle;Max_cycle;Signal;HPM_P1;HPM_P2
2023/09/22 00:02:03;;;;;;;26.55;19.88;;;14.90;99.90;;;;;;4995217;28;20050;-69
2023/09/22 00:04:29;;;;;;;26.08;18.80;;;14.90;99.90;;;;;;4979283;28;20391;-69
2023/09/22 00:06:55;;;;;;;26.48;19.05;;;14.90;99.90;;;;;;4978792;28;20050;-69
2023/09/22 00:09:24;;;;;;;37.67;22.95;;;14.90;99.90;;;;;;4995321;28;20038;-70
2023/09/22 00:11:50;;;;;;;22.27;18.08;;;14.90;99.90;;;;;;4979154;28;20034;-69
2023/09/22 00:14:16;;;;;;;28.58;19.92;;;14.90;99.90;;;;;;4995315;28;20096;-68
2023/09/22 00:16:42;;;;;;;20.75;17.20;;;14.90;99.90;;;;;;4995029;28;20120;-68
2023/09/22 00:19:08;;;;;;;23.92;18.98;;;14.90;99.90;;;;;;4962799;28;20130;-68
2023/09/22 00:21:36;;;;;;;27.60;19.45;;;14.90;99.90;;;;;;4995026;28;20042;-68
2023/09/22 00:24:02;;;;;;;24.15;19.35;;;14.90;99.90;;;;;;4994786;28;20506;-68
2023/09/22 00:26:28;;;;;;;24.58;19.67;;;14.90;99.90;;;;;;4994947;28;20085;-68
2023/09/22 00:28:57;;;;;;;26.13;19.98;;;14.90;99.90;;;;;;4978918;28;20039;-68
2023/09/22 00:31:23;;;;;;;24.13;19.75;;;14.90;99.90;;;;;;4978719;28;20038;-69
2023/09/22 00:33:49;;;;;;;25.23;19.65;;;14.90;99.90;;;;;;4978606;28;20049;-69
2023/09/22 00:36:18;;;;;;;23.27;19.25;;;14.90;99.90;;;;;;4978612;28;20129;-69
2023/09/22 00:38:44;;;;;;;23.50;19.25;;;14.90;99.90;;;;;;4994471;28;20046;-69
2023/09/22 00:41:10;;;;;;;24.20;19.27;;;14.90;99.90;;;;;;4978553;28;20034;-69
2023/09/22 00:43:35;;;;;;;31.40;21.85;;;14.90;99.90;;;;;;4994477;28;20045;-69
2023/09/22 00:46:02;;;;;;;23.23;19.25;;;14.90;99.90;;;;;;4994739;28;20495;-68
2023/09/22 00:48:31;;;;;;;23.17;19.20;;;14.90;99.90;;;;;;4994618;28;20050;-69
2023/09/22 00:50:58;;;;;;;23.75;18.65;;;14.90;99.90;;;;;;4994471;28;20136;-69
2023/09/22 00:53:25;;;;;;;19.45;16.50;;;14.90;99.90;;;;;;4994337;28;20134;-69
2023/09/22 00:55:52;;;;;;;22.00;18.17;;;14.90;99.90;;;;;;4978219;28;20043;-69
2023/09/22 00:58:22;;;;;;;18.20;16.05;;;14.90;99.90;;;;;;4994336;28;20046;-69
2023/09/22 01:00:49;;;;;;;18.42;16.38;;;14.90;99.90;;;;;;4977978;28;20153;-69
2023/09/22 01:03:17;;;;;;;21.05;17.08;;;14.90;99.90;;;;;;4994026;28;20100;-68
2023/09/22 01:05:43;;;;;;;18.33;16.05;;;14.90;99.90;;;;;;4978503;28;20050;-69
2023/09/22 01:08:09;;;;;;;18.73;16.38;;;14.80;99.90;;;;;;4978208;28;20074;-69
2023/09/22 01:10:40;;;;;;;17.65;15.50;;;14.90;99.90;;;;;;4994036;28;20077;-69
2023/09/22 01:13:06;;;;;;;20.27;16.00;;;14.90;99.90;;;;;;4993866;28;20050;-69
2023/09/22 01:15:40;;;;;;;18.50;16.05;;;14.80;99.90;;;;;;4993926;28;20042;-69
2023/09/22 01:18:06;;;;;;;20.75;17.15;;;14.80;99.90;;;;;;4993401;28;20057;-69
2023/09/22 01:20:38;;;;;;;18.63;16.63;;;14.80;99.90;;;;;;4977668;28;20034;-68
2023/09/22 01:23:04;;;;;;;18.00;15.93;;;14.90;99.90;;;;;;4993612;28;20490;-69
2023/09/22 01:25:30;;;;;;;22.30;18.20;;;14.90;99.90;;;;;;4993975;28;20096;-69
2023/09/22 01:27:56;;;;;;;17.88;15.98;;;14.80;99.90;;;;;;4977317;28;20121;-69
2023/09/22 01:30:21;;;;;;;20.88;17.73;;;14.80;99.90;;;;;;4993803;28;20121;-70
2023/09/22 01:32:47;;;;;;;23.23;19.05;;;14.80;99.90;;;;;;4993650;28;20046;-69
2023/09/22 01:35:13;;;;;;;20.27;17.58;;;14.80;99.90;;;;;;4977158;28;20053;-70
2023/09/22 01:37:51;;;;;;;22.23;18.00;;;14.80;99.90;;;;;;4977956;28;20034;-69
2023/09/22 01:40:20;;;;;;;23.50;18.25;;;14.80;99.90;;;;;;4977192;28;20046;-68
2023/09/22 01:42:45;;;;;;;21.55;17.75;;;14.80;99.90;;;;;;4977732;28;20062;-69
2023/09/22 01:45:11;;;;;;;21.15;18.52;;;14.80;99.90;;;;;;4977569;28;20045;-69
2023/09/22 01:47:40;;;;;;;24.88;20.17;;;14.80;99.90;;;;;;4976953;28;20042;-69
2023/09/22 01:50:08;;;;;;;21.67;17.73;;;14.80;99.90;;;;;;4977440;28;20060;-69
2023/09/22 01:52:34;;;;;;;24.48;19.60;;;14.70;99.90;;;;;;4993292;28;20050;-69
2023/09/22 01:55:00;;;;;;;21.63;17.90;;;14.70;99.90;;;;;;4976793;28;20046;-69
2023/09/22 01:57:25;;;;;;;23.88;19.35;;;14.70;99.90;;;;;;4992906;28;20050;-69
2023/09/22 01:59:52;;;;;;;25.83;19.73;;;14.70;99.90;;;;;;4960629;28;20038;-69
2023/09/22 02:02:18;;;;;;;23.25;19.55;;;14.70;99.90;;;;;;4976531;28;20096;-69
2023/09/22 02:04:43;;;;;;;23.63;18.95;;;14.70;99.90;;;;;;4993096;28;20050;-70
2023/09/22 02:07:10;;;;;;;26.33;19.60;;;14.70;99.90;;;;;;4977357;28;20046;-69
2023/09/22 02:09:36;;;;;;;31.20;21.73;;;14.60;99.90;;;;;;4960734;28;20035;-70
2023/09/22 02:12:02;;;;;;;23.58;19.20;;;14.70;99.90;;;;;;4976741;28;20049;-70
2023/09/22 02:14:28;;;;;;;25.00;19.90;;;14.70;99.90;;;;;;4992790;28;20038;-69
2023/09/22 02:16:54;;;;;;;21.80;17.13;;;14.70;99.90;;;;;;4993084;28;20050;-69
2023/09/22 02:19:20;;;;;;;22.17;18.42;;;14.70;99.90;;;;;;4961060;28;20065;-67
2023/09/22 02:21:46;;;;;;;23.83;19.00;;;14.70;99.90;;;;;;4993495;28;20086;-67
2023/09/22 02:24:14;;;;;;;22.58;19.50;;;14.70;99.90;;;;;;4977018;28;20060;-68
2023/09/22 02:26:43;;;;;;;28.58;21.73;;;14.70;99.90;;;;;;4962035;28;20045;-68
2023/09/22 02:29:09;;;;;;;31.13;22.33;;;14.70;99.90;;;;;;4992906;28;20035;-68
2023/09/22 02:31:35;;;;;;;27.75;21.77;;;14.70;99.90;;;;;;4993071;28;20050;-68
2023/09/22 02:34:04;;;;;;;26.77;21.52;;;14.70;99.90;;;;;;4976645;28;20100;-68
2023/09/22 02:36:30;;;;;;;28.42;21.48;;;14.70;99.90;;;;;;4977143;28;20050;-68
2023/09/22 02:39:06;;;;;;;27.50;21.77;;;14.70;99.90;;;;;;4976604;28;20046;-68
2023/09/22 02:41:35;;;;;;;24.88;19.40;;;14.70;99.90;;;;;;4977195;28;20564;-68
2023/09/22 02:44:01;;;;;;;29.80;22.13;;;14.70;99.90;;;;;;4960619;28;20039;-68
2023/09/22 02:46:26;;;;;;;28.95;22.40;;;14.70;99.90;;;;;;4960414;28;20061;-67
2023/09/22 02:48:52;;;;;;;32.63;23.85;;;14.70;99.90;;;;;;4976894;28;20038;-68
2023/09/22 02:51:18;;;;;;;28.08;22.48;;;14.70;99.90;;;;;;4976706;28;20549;-69
2023/09/22 02:53:50;;;;;;;25.95;21.33;;;14.70;99.90;;;;;;4992518;28;20089;-69
2023/09/22 02:56:16;;;;;;;31.73;24.27;;;14.60;99.90;;;;;;4993060;28;20569;-69
2023/09/22 02:58:45;;;;;;;33.92;24.58;;;14.60;99.90;;;;;;4993130;28;20077;-69
2023/09/22 03:01:11;;;;;;;26.98;22.02;;;14.60;99.90;;;;;;4992622;28;20042;-69
2023/09/22 03:03:42;;;;;;;29.00;23.50;;;14.60;99.90;;;;;;4992413;28;20138;-69
2023/09/22 03:06:11;;;;;;;28.52;22.85;;;14.60;99.90;;;;;;4960903;28;20042;-69
2023/09/22 03:08:38;;;;;;;29.65;23.70;;;14.60;99.90;;;;;;4992200;28;20046;-69
2023/09/22 03:11:05;;;;;;;36.25;25.92;;;14.60;99.90;;;;;;4992329;28;20042;-69
2023/09/22 03:13:40;;;;;;;33.03;24.30;;;14.50;99.90;;;;;;4992691;28;20125;-68
2023/09/22 03:16:06;;;;;;;26.67;22.10;;;14.50;99.90;;;;;;4992371;28;20042;-69
2023/09/22 03:18:31;;;;;;;31.00;24.63;;;14.50;99.90;;;;;;4960349;28;20149;-68
2023/09/22 03:20:57;;;;;;;32.03;23.75;;;14.50;99.90;;;;;;4960520;28;20081;-69
2023/09/22 03:23:24;;;;;;;31.17;23.67;;;14.50;99.90;;;;;;4992612;28;20073;-68
2023/09/22 03:25:50;;;;;;;33.13;25.77;;;14.50;99.90;;;;;;4993045;28;20034;-68
2023/09/22 03:28:16;;;;;;;26.27;21.63;;;14.50;99.90;;;;;;4977167;28;20042;-68
2023/09/22 03:30:41;;;;;;;31.30;24.88;;;14.50;99.90;;;;;;4976409;28;20042;-69
2023/09/22 03:33:08;;;;;;;31.73;25.20;;;14.50;99.90;;;;;;4976472;28;20046;-70
2023/09/22 03:35:36;;;;;;;34.25;25.58;;;14.50;99.90;;;;;;4992955;28;20046;-69
2023/09/22 03:38:03;;;;;;;27.98;22.77;;;14.50;99.90;;;;;;4992769;28;20047;-69
2023/09/22 03:40:33;;;;;;;31.60;23.27;;;14.50;99.90;;;;;;4976773;28;20051;-67
2023/09/22 03:43:00;;;;;;;28.58;23.70;;;14.50;99.90;;;;;;4994881;28;20053;-69
2023/09/22 03:45:26;;;;;;;27.92;22.30;;;14.50;99.90;;;;;;4996586;28;20088;-67
2023/09/22 03:47:52;;;;;;;29.40;21.40;;;14.50;99.90;;;;;;4979994;28;20125;-67
2023/09/22 03:50:18;;;;;;;25.90;20.33;;;14.40;99.90;;;;;;4980284;28;20104;-68
2023/09/22 03:52:44;;;;;;;25.10;20.95;;;14.40;99.90;;;;;;4996241;28;20045;-69
2023/09/22 03:55:11;;;;;;;23.15;18.83;;;14.40;99.90;;;;;;4995626;28;20045;-69
2023/09/22 03:57:38;;;;;;;22.77;18.83;;;14.40;99.90;;;;;;4995692;28;20093;-67
2023/09/22 04:00:07;;;;;;;21.02;18.30;;;14.40;99.90;;;;;;4996845;28;20414;-68
2023/09/22 04:02:33;;;;;;;22.67;18.52;;;14.40;99.90;;;;;;4995428;28;20101;-68
2023/09/22 04:04:59;;;;;;;23.48;18.27;;;14.40;99.90;;;;;;4995235;28;20038;-68
2023/09/22 04:07:25;;;;;;;27.98;19.13;;;14.30;99.90;;;;;;4963184;28;20065;-69
2023/09/22 04:09:51;;;;;;;25.65;18.52;;;14.30;99.90;;;;;;4995705;28;20038;-69
2023/09/22 04:12:20;;;;;;;23.17;17.92;;;14.30;99.90;;;;;;4995274;28;20042;-69
2023/09/22 04:14:46;;;;;;;25.30;19.73;;;14.30;99.90;;;;;;4995399;28;20059;-70
2023/09/22 04:17:11;;;;;;;23.33;18.45;;;14.30;99.90;;;;;;4979372;28;20491;-69
2023/09/22 04:19:49;;;;;;;26.73;20.65;;;14.30;99.90;;;;;;4962886;28;20046;-69
2023/09/22 04:22:32;;;;;;;27.52;21.45;;;14.30;99.90;;;;;;4978862;28;20046;-70
2023/09/22 04:25:03;;;;;;;28.25;21.50;;;14.20;99.90;;;;;;4994926;28;20140;-69
2023/09/22 04:27:34;;;;;;;27.48;20.58;;;14.10;99.90;;;;;;4995218;28;20398;-69
2023/09/22 04:30:07;;;;;;;27.20;22.08;;;14.10;99.90;;;;;;4978710;28;20740;-69
2023/09/22 04:32:37;;;;;;;28.02;21.70;;;14.10;99.90;;;;;;4995125;28;20105;-69
2023/09/22 04:35:07;;;;;;;27.63;21.08;;;14.00;99.90;;;;;;4978821;28;20050;-69
2023/09/22 04:37:33;;;;;;;29.50;23.05;;;14.00;99.90;;;;;;4994615;28;20065;-69
2023/09/22 04:40:00;;;;;;;28.63;22.13;;;13.90;99.90;;;;;;4994931;28;20038;-70
2023/09/22 04:42:26;;;;;;;31.83;23.50;;;13.90;99.90;;;;;;4978327;28;20046;-69
2023/09/22 04:44:55;;;;;;;33.33;25.33;;;13.80;99.90;;;;;;4994552;28;20238;-69
2023/09/22 04:47:21;;;;;;;30.58;24.75;;;13.80;99.90;;;;;;4978837;28;20039;-69
2023/09/22 04:49:47;;;;;;;38.60;28.55;;;13.70;99.90;;;;;;4978236;28;20038;-69
2023/09/22 04:52:12;;;;;;;41.65;28.90;;;13.70;99.90;;;;;;4994702;28;20454;-69
2023/09/22 04:54:40;;;;;;;35.25;27.23;;;13.60;99.90;;;;;;4994672;28;20065;-70
2023/09/22 04:57:06;;;;;;;37.60;28.55;;;13.60;99.90;;;;;;4994509;28;20052;-70
2023/09/22 04:59:31;;;;;;;33.05;26.75;;;13.50;99.90;;;;;;4977888;28;20042;-70
2023/09/22 05:02:04;;;;;;;37.58;29.10;;;13.40;99.90;;;;;;4994225;28;20104;-70
2023/09/22 05:04:30;;;;;;;45.77;31.33;;;13.40;99.90;;;;;;4978824;28;20054;-70
2023/09/22 05:06:56;;;;;;;36.35;28.38;;;13.40;99.90;;;;;;4978048;28;20277;-69
2023/09/22 05:09:22;;;;;;;39.60;28.90;;;13.30;99.90;;;;;;4977749;28;20042;-70
2023/09/22 05:12:09;;;;;;;52.63;33.03;;;13.30;99.90;;;;;;4977937;28;20138;-70
2023/09/22 05:14:35;;;;;;;47.83;32.47;;;13.20;99.90;;;;;;4993989;28;20073;-70
2023/09/22 05:17:01;;;;;;;49.70;33.22;;;13.10;99.90;;;;;;4994044;28;20125;-69
2023/09/22 05:19:29;;;;;;;42.92;31.77;;;13.10;99.90;;;;;;4977896;28;20042;-70
2023/09/22 05:21:55;;;;;;;39.22;30.98;;;13.10;99.90;;;;;;4993857;28;20039;-69
2023/09/22 05:24:20;;;;;;;39.33;30.08;;;13.10;99.90;;;;;;4993888;28;20045;-69
2023/09/22 05:26:46;;;;;;;41.38;31.17;;;13.10;99.90;;;;;;4977609;28;20042;-69
2023/09/22 05:29:12;;;;;;;57.25;35.00;;;13.00;99.90;;;;;;4961704;28;20034;-69
2023/09/22 05:31:38;;;;;;;45.05;33.38;;;13.00;99.90;;;;;;4977832;28;20050;-69
2023/09/22 05:34:04;;;;;;;47.50;33.55;;;12.90;99.90;;;;;;4993889;28;20042;-67
2023/09/22 05:36:30;;;;;;;44.65;31.90;;;12.90;99.90;;;;;;4993316;28;20120;-68
2023/09/22 05:38:59;;;;;;;56.58;35.47;;;12.90;99.90;;;;;;4993638;28;20050;-67
2023/09/22 05:41:24;;;;;;;57.92;35.38;;;12.90;99.90;;;;;;4993705;28;20045;-69
2023/09/22 05:43:51;;;;;;;48.33;33.80;;;12.90;99.90;;;;;;4994021;28;20038;-69
2023/09/22 05:46:16;;;;;;;45.85;33.22;;;12.90;99.90;;;;;;4993181;28;20042;-67
2023/09/22 05:48:52;;;;;;;48.60;33.88;;;12.90;99.90;;;;;;4993336;28;20052;-67
2023/09/22 05:51:19;;;;;;;55.58;34.60;;;12.90;99.90;;;;;;4976845;28;20053;-68
2023/09/22 05:53:44;;;;;;;46.80;31.90;;;12.90;99.90;;;;;;4993153;28;20125;-70
2023/09/22 05:56:11;;;;;;;52.90;33.17;;;12.90;99.90;;;;;;4977609;28;20084;-69
2023/09/22 05:58:39;;;;;;;44.55;31.35;;;12.90;99.90;;;;;;4993231;28;20050;-69
2023/09/22 06:01:09;;;;;;;48.83;31.80;;;13.00;99.90;;;;;;4994476;28;20455;-68
2023/09/22 06:03:40;;;;;;;47.45;30.27;;;13.00;99.90;;;;;;4961038;28;20086;-69
2023/09/22 06:06:11;;;;;;;44.22;29.35;;;13.00;99.90;;;;;;4976697;28;20533;-70
2023/09/22 06:08:41;;;;;;;42.38;28.48;;;13.10;99.90;;;;;;4993268;28;20564;-69
2023/09/22 06:11:12;;;;;;;40.70;28.08;;;13.10;99.90;;;;;;4993009;28;20038;-68
2023/09/22 06:13:42;;;;;;;44.73;27.97;;;13.20;99.90;;;;;;4977300;28;20500;-69
2023/09/22 06:16:09;;;;;;;45.13;27.05;;;13.20;99.90;;;;;;4977103;28;20553;-69
2023/09/22 06:18:35;;;;;;;35.33;24.20;;;13.20;99.90;;;;;;4993061;28;20097;-69
2023/09/22 06:21:03;;;;;;;34.03;23.63;;;13.20;99.90;;;;;;4960687;28;20046;-69
2023/09/22 06:23:36;;;;;;;35.28;23.80;;;13.30;99.90;;;;;;4976750;28;20069;-67
2023/09/22 06:26:05;;;;;;;31.60;21.55;;;13.30;99.90;;;;;;4976779;28;20038;-67
2023/09/22 06:28:31;;;;;;;31.48;21.67;;;13.30;99.90;;;;;;4992960;28;20042;-68
2023/09/22 06:31:01;;;;;;;32.15;21.80;;;13.40;99.90;;;;;;4992757;28;20498;-70
2023/09/22 06:33:27;;;;;;;30.85;21.15;;;13.40;99.90;;;;;;4992816;28;20046;-69
2023/09/22 06:36:05;;;;;;;28.40;19.70;;;13.40;99.90;;;;;;4992644;28;20494;-69
2023/09/22 06:38:35;;;;;;;27.33;18.95;;;13.50;99.90;;;;;;4992621;28;20125;-69
2023/09/22 06:41:04;;;;;;;26.80;18.15;;;13.70;99.90;;;;;;4992588;28;20046;-69
2023/09/22 06:43:31;;;;;;;26.80;18.27;;;13.80;99.90;;;;;;4994082;28;20136;-68
2023/09/22 06:46:10;;;;;;;24.13;17.35;;;14.00;99.90;;;;;;4978520;28;20042;-68
2023/09/22 06:48:36;;;;;;;25.98;16.83;;;14.00;99.90;;;;;;4976778;28;20494;-68
2023/09/22 06:51:03;;;;;;;26.40;16.92;;;14.00;99.90;;;;;;4992846;28;20053;-68
2023/09/22 06:53:32;;;;;;;23.63;16.50;;;13.90;99.90;;;;;;4976958;28;20046;-68
2023/09/22 06:56:09;;;;;;;23.33;15.70;;;13.90;99.90;;;;;;4992997;28;20499;-68
2023/09/22 06:58:36;;;;;;;24.55;16.20;;;13.90;99.90;;;;;;4993039;28;20089;-68
2023/09/22 07:01:11;;;;;;;22.35;16.20;;;13.90;99.90;;;;;;4992433;28;20046;-68
2023/09/22 07:03:41;;;;;;;21.67;16.10;;;13.90;99.90;;;;;;4976102;28;20432;-68
2023/09/22 07:06:10;;;;;;;23.35;16.73;;;13.90;99.90;;;;;;4992503;28;20068;-67
2023/09/22 07:08:37;;;;;;;24.20;16.05;;;14.00;99.90;;;;;;4992339;28;20042;-67
2023/09/22 07:11:05;;;;;;;21.40;15.13;;;14.00;99.90;;;;;;4976635;28;20125;-68
2023/09/22 07:13:31;;;;;;;21.63;15.50;;;14.00;99.90;;;;;;4992914;28;20043;-68
2023/09/22 07:15:57;;;;;;;20.65;15.68;;;14.00;99.90;;;;;;4976542;28;20487;-68
2023/09/22 07:18:29;;;;;;;21.25;14.80;;;14.10;99.90;;;;;;4979734;28;20509;-69
2023/09/22 07:21:13;;;;;;;22.08;15.77;;;14.10;99.90;;;;;;4982836;28;20050;-68
2023/09/22 07:23:39;;;;;;;22.35;15.40;;;14.10;99.90;;;;;;4995786;28;20388;-70
2023/09/22 07:26:09;;;;;;;21.52;15.48;;;14.20;99.90;;;;;;4979698;28;20085;-68
2023/09/22 07:28:36;;;;;;;22.27;14.50;;;14.20;99.90;;;;;;4995985;28;20138;-68
2023/09/22 07:31:30;;;;;;;24.40;16.75;;;14.20;99.90;;;;;;4979967;28;20499;-69
2023/09/22 07:34:09;;;;;;;19.20;13.93;;;14.30;99.90;;;;;;4996384;28;20038;-69
2023/09/22 07:36:34;;;;;;;22.13;13.45;;;14.30;99.90;;;;;;4995759;28;20243;-69
2023/09/22 07:39:09;;;;;;;18.58;13.77;;;14.40;99.90;;;;;;4963872;28;20042;-70
2023/09/22 07:41:35;;;;;;;20.30;13.60;;;14.40;99.90;;;;;;4995797;28;20125;-69
2023/09/22 07:44:05;;;;;;;21.92;14.25;;;14.40;99.90;;;;;;4995672;28;20043;-68
2023/09/22 07:46:31;;;;;;;19.20;13.25;;;14.40;99.90;;;;;;4980091;28;20044;-68
2023/09/22 07:48:57;;;;;;;18.20;13.07;;;14.50;99.90;;;;;;4995736;28;20042;-68
2023/09/22 07:51:30;;;;;;;18.77;13.02;;;14.50;99.90;;;;;;4995515;28;20038;-68
2023/09/22 07:53:56;;;;;;;18.23;12.48;;;14.60;99.90;;;;;;4979979;28;20092;-67
2023/09/22 07:56:22;;;;;;;19.10;13.10;;;14.60;99.90;;;;;;4979591;28;20611;-67
2023/09/22 07:58:48;;;;;;;18.55;12.70;;;14.60;99.90;;;;;;4995297;28;20074;-68
2023/09/22 08:01:24;;;;;;;19.88;11.82;;;14.70;99.90;;;;;;4995254;28;20097;-69
2023/09/22 08:03:54;;;;;;;15.57;11.20;;;14.70;99.90;;;;;;4994821;28;20415;-68
2023/09/22 08:06:20;;;;;;;16.67;11.10;;;14.60;99.90;;;;;;4963027;28;20050;-67
2023/09/22 08:08:49;;;;;;;16.75;11.77;;;14.60;99.90;;;;;;4995204;28;20471;-69
2023/09/22 08:11:21;;;;;;;16.98;10.55;;;14.60;99.90;;;;;;4965324;28;20045;-67
2023/09/22 08:13:53;;;;;;;15.20;10.23;;;14.60;99.90;;;;;;4995204;28;20177;-68
2023/09/22 08:16:20;;;;;;;16.52;9.80;;;14.60;99.90;;;;;;4979000;28;20125;-69
2023/09/22 08:19:09;;;;;;;16.27;9.43;;;14.60;99.90;;;;;;4981468;28;20039;-69
2023/09/22 08:21:35;;;;;;;15.10;9.20;;;14.70;99.90;;;;;;4994734;28;20042;-69
2023/09/22 08:24:08;;;;;;;12.57;8.15;;;14.70;99.90;;;;;;4994741;28;20073;-69
2023/09/22 08:26:42;;;;;;;11.57;7.40;;;14.80;99.90;;;;;;4966655;28;20049;-69
2023/09/22 08:29:09;;;;;;;12.10;7.25;;;14.90;99.90;;;;;;4978152;28;20486;-69
2023/09/22 08:31:54;;;;;;;10.63;6.60;;;15.00;99.90;;;;;;4978598;28;20066;-69
2023/09/22 08:34:19;;;;;;;11.23;6.80;;;15.10;99.90;;;;;;4994664;28;20042;-68
2023/09/22 08:36:45;;;;;;;12.20;6.60;;;15.10;99.90;;;;;;4978348;28;20526;-68
2023/09/22 08:39:15;;;;;;;11.65;6.30;;;15.20;99.90;;;;;;4978725;28;20491;-68
2023/09/22 08:41:41;;;;;;;11.43;5.78;;;15.30;99.90;;;;;;4978663;28;20125;-67
2023/09/22 08:44:09;;;;;;;9.25;6.05;;;15.30;99.90;;;;;;4994491;28;20034;-68
2023/09/22 08:46:48;;;;;;;8.70;5.57;;;15.30;99.90;;;;;;4978810;28;20038;-67
2023/09/22 08:49:15;;;;;;;10.27;5.45;;;15.30;99.90;;;;;;4994916;28;20041;-68
2023/09/22 08:51:41;;;;;;;8.18;4.88;;;15.50;99.90;;;;;;4994934;28;20065;-68
2023/09/22 08:54:09;;;;;;;8.35;4.45;;;15.50;99.90;;;;;;4962896;28;20038;-68
2023/09/22 08:56:38;;;;;;;7.72;4.25;;;15.60;99.90;;;;;;4994798;28;20038;-68
2023/09/22 08:59:04;;;;;;;7.72;4.10;;;15.60;99.90;;;;;;4994545;28;20038;-67
2023/09/22 09:01:30;;;;;;;6.75;4.10;;;15.70;99.90;;;;;;4994473;28;20042;-67
2023/09/22 09:03:57;;;;;;;8.60;4.43;;;15.70;99.90;;;;;;4994531;28;20062;-68
2023/09/22 09:06:23;;;;;;;9.20;4.20;;;15.60;99.90;;;;;;4962781;28;20034;-67
2023/09/22 09:09:12;;;;;;;9.20;3.90;;;15.60;99.90;;;;;;4978306;28;20042;-67
2023/09/22 09:12:00;;;;;;;7.72;3.50;;;15.70;99.90;;;;;;4988849;28;20399;-67
2023/09/22 09:14:29;;;;;;;8.45;3.30;;;15.90;99.90;;;;;;4978493;28;20475;-67
2023/09/22 09:16:58;;;;;;;6.97;2.90;;;16.10;99.90;;;;;;4994267;28;20046;-68
2023/09/22 09:19:26;;;;;;;5.70;2.92;;;16.30;99.90;;;;;;4978889;28;20034;-68
2023/09/22 09:22:12;;;;;;;6.80;2.80;;;16.50;99.90;;;;;;4979083;28;20511;-69
2023/09/22 09:24:38;;;;;;;7.35;2.72;;;16.40;99.90;;;;;;4978960;28;20089;-68
2023/09/22 09:27:18;;;;;;;4.75;2.22;;;16.50;99.90;;;;;;4994638;28;20049;-68
2023/09/22 09:29:53;;;;;;;5.28;2.10;;;16.50;99.90;;;;;;4963137;28;20121;-69
2023/09/22 09:32:31;;;;;;;6.60;2.10;;;16.70;99.90;;;;;;4965374;28;20399;-68
2023/09/22 09:34:57;;;;;;;6.82;2.30;;;16.90;99.90;;;;;;4978864;28;20092;-68
2023/09/22 09:37:23;;;;;;;6.00;2.03;;;17.10;99.90;;;;;;4978592;28;20042;-68
2023/09/22 09:39:53;;;;;;;6.22;1.90;;;17.30;99.90;;;;;;4977345;28;20049;-67
2023/09/22 09:42:24;;;;;;;5.10;1.88;;;17.60;99.90;;;;;;4993836;28;20046;-68
2023/09/22 09:45:02;;;;;;;5.82;2.00;;;17.80;99.90;;;;;;4993969;28;20049;-67
2023/09/22 09:47:35;;;;;;;5.13;1.77;;;18.00;99.90;;;;;;4993811;28;20053;-69
2023/09/22 09:50:08;;;;;;;5.80;1.90;;;18.10;99.90;;;;;;4993646;28;20479;-69
2023/09/22 09:52:56;;;;;;;4.47;1.60;;;18.30;99.90;;;;;;4993531;28;20038;-68
2023/09/22 09:55:24;;;;;;;5.97;2.00;;;18.40;99.90;;;;;;4961567;28;20062;-67
2023/09/22 09:58:01;;;;;;;5.70;1.90;;;18.50;99.90;;;;;;4993739;28;20118;-68
2023/09/22 10:00:35;;;;;;;6.55;1.80;;;18.50;99.90;;;;;;4977375;28;20046;-68
2023/09/22 10:03:03;;;;;;;7.63;1.73;;;18.60;99.90;;;;;;4978278;28;20395;-67
2023/09/22 10:05:33;;;;;;;6.10;1.80;;;18.70;99.90;;;;;;4993314;28;20034;-68
2023/09/22 10:07:59;;;;;;;4.75;1.60;;;18.70;99.90;;;;;;4993625;28;20049;-67
2023/09/22 10:10:27;;;;;;;5.38;1.45;;;18.80;99.90;;;;;;4976973;28;20046;-68
2023/09/22 10:12:53;;;;;;;5.70;1.70;;;18.90;99.90;;;;;;4993528;28;20042;-67
2023/09/22 10:15:54;;;;;;;5.00;1.40;;;19.00;99.90;;;;;;4993711;28;20085;-68
2023/09/22 10:18:23;;;;;;;3.93;1.40;;;19.00;99.90;;;;;;4986364;28;20391;-67
2023/09/22 10:20:52;;;;;;;5.25;1.42;;;18.70;99.90;;;;;;4993102;28;20047;-67
2023/09/22 10:23:22;;;;;;;5.18;1.33;;;18.40;99.90;;;;;;4992879;28;20046;-67
2023/09/22 10:26:19;;;;;;;4.63;1.38;;;18.10;99.90;;;;;;4993281;28;20045;-68
2023/09/22 10:28:46;;;;;;;3.60;1.30;;;17.80;99.90;;;;;;4993175;28;20596;-68
2023/09/22 10:31:17;;;;;;;4.13;1.30;;;17.60;99.90;;;;;;4992838;28;20130;-67
2023/09/22 10:33:45;;;;;;;5.30;1.52;;;17.30;99.90;;;;;;4976970;28;20092;-67
2023/09/22 10:36:14;;;;;;;3.75;1.25;;;17.10;99.90;;;;;;4976809;28;20062;-66
2023/09/22 10:39:07;;;;;;;4.38;1.33;;;17.00;99.90;;;;;;4992586;28;20057;-67
2023/09/22 10:41:35;;;;;;;5.70;1.20;;;16.90;99.90;;;;;;4977835;28;20061;-67
2023/09/22 10:44:03;;;;;;;5.28;1.40;;;16.80;99.90;;;;;;4976476;28;20063;-67
2023/09/22 10:46:30;;;;;;;3.38;1.20;;;17.00;99.90;;;;;;4992950;28;20557;-66
2023/09/22 10:48:59;;;;;;;3.97;1.25;;;17.20;99.90;;;;;;4992816;28;20125;-67
2023/09/22 10:51:48;;;;;;;4.35;1.30;;;17.60;99.90;;;;;;4978694;28;20057;-67
2023/09/22 10:54:19;;;;;;;4.55;1.30;;;17.90;99.90;;;;;;4996651;28;20038;-68
2023/09/22 10:56:45;;;;;;;3.47;1.17;;;18.20;99.90;;;;;;4980453;28;20137;-67
2023/09/22 10:59:12;;;;;;;4.00;1.30;;;18.50;99.90;;;;;;4996461;28;20463;-67
2023/09/22 11:01:47;;;;;;;3.15;1.20;;;18.60;99.90;;;;;;4980271;28;20042;-67
2023/09/22 11:04:39;;;;;;;5.15;1.40;;;18.80;99.90;;;;;;4996380;28;20550;-68
2023/09/22 11:07:34;;;;;;;3.15;1.10;;;18.90;99.90;;;;;;4980287;28;20529;-68
2023/09/22 11:10:05;;;;;;;5.15;1.20;;;19.00;99.90;;;;;;4991752;28;20042;-67
2023/09/22 11:12:31;;;;;;;5.40;1.40;;;18.80;99.90;;;;;;4980174;28;20116;-67
2023/09/22 11:15:02;;;;;;;4.20;1.40;;;18.50;99.90;;;;;;4980216;28;20410;-66
2023/09/22 11:17:42;;;;;;;6.68;1.30;;;18.20;99.90;;;;;;4980172;28;20045;-66
2023/09/22 11:20:18;;;;;;;4.93;1.30;;;18.20;99.90;;;;;;4979910;28;20046;-68
2023/09/22 11:22:45;;;;;;;5.25;1.40;;;18.20;99.90;;;;;;4981122;28;20050;-67
2023/09/22 11:25:21;;;;;;;5.32;1.17;;;18.20;99.90;;;;;;4996031;28;20104;-69
2023/09/22 11:27:47;;;;;;;3.92;1.17;;;18.30;99.90;;;;;;4996038;28;20046;-68
2023/09/22 11:30:19;;;;;;;3.35;1.00;;;18.50;99.90;;;;;;4996156;28;20050;-69
2023/09/22 11:32:46;;;;;;;;;;;18.70;99.90;;;;;;4996357;28;20061;-69
2023/09/22 11:35:49;;;;;;;4.45;1.10;;;18.80;99.90;;;;;;4980086;28;19924;-69
2023/09/22 11:38:29;;;;;;;4.22;1.10;;;19.00;99.90;;;;;;4995613;28;20054;-70
2023/09/22 11:41:10;;;;;;;4.65;1.00;;;19.00;99.90;;;;;;4980875;28;20050;-68
2023/09/22 11:43:41;;;;;;;4.70;1.25;;;18.80;99.90;;;;;;4979949;28;20038;-69
2023/09/22 11:46:18;;;;;;;3.55;1.17;;;18.60;99.90;;;;;;4979603;28;20108;-70
2023/09/22 11:49:20;;;;;;;4.07;1.17;;;18.50;99.90;;;;;;4995836;28;20042;-69
2023/09/22 11:51:56;;;;;;;3.33;1.10;;;18.40;99.90;;;;;;4959277;28;20118;-68
2023/09/22 11:54:34;;;;;;;3.75;1.00;;;18.30;99.90;;;;;;4990586;28;20050;-69
2023/09/22 11:57:00;;;;;;;3.65;1.08;;;18.20;99.90;;;;;;4995932;28;20558;-69
2023/09/22 11:59:31;;;;;;;4.45;1.00;;;18.10;99.90;;;;;;4979990;28;20125;-69
2023/09/22 12:02:04;;;;;;;3.00;1.00;;;18.10;99.90;;;;;;4979083;28;20517;-71
2023/09/22 12:04:32;;;;;;;2.67;1.00;;;18.00;99.90;;;;;;4963236;28;20054;-70
2023/09/22 12:06:58;;;;;;;3.63;1.05;;;18.00;99.90;;;;;;4995248;28;20121;-69
2023/09/22 12:09:24;;;;;;;2.97;1.00;;;17.90;99.90;;;;;;4963096;28;20129;-70
2023/09/22 12:11:50;;;;;;;3.92;0.95;;;17.90;99.90;;;;;;4978925;28;20100;-68
2023/09/22 12:14:16;;;;;;;3.85;0.98;;;18.00;99.90;;;;;;4979313;28;20046;-70
2023/09/22 12:16:42;;;;;;;3.78;1.10;;;18.00;99.90;;;;;;4995192;28;20035;-71
2023/09/22 12:19:08;;;;;;;3.97;0.90;;;18.00;99.90;;;;;;4996607;28;20100;-71
2023/09/22 12:21:35;;;;;;;2.67;0.90;;;18.00;99.90;;;;;;4979137;28;20038;-68
2023/09/22 12:24:01;;;;;;;4.28;1.10;;;18.10;99.90;;;;;;4978919;28;20038;-69
2023/09/22 12:26:27;;;;;;;3.58;1.10;;;18.20;99.90;;;;;;4978953;28;20045;-69
2023/09/22 12:28:53;;;;;;;4.43;1.10;;;18.20;99.90;;;;;;4978657;28;20042;-69
2023/09/22 12:31:19;;;;;;;3.55;1.10;;;18.10;99.90;;;;;;4995115;28;20042;-70
2023/09/22 12:33:46;;;;;;;5.20;1.05;;;18.00;99.90;;;;;;4994762;28;20568;-67
2023/09/22 12:36:16;;;;;;;4.38;1.20;;;17.90;99.90;;;;;;4978699;28;20101;-66
2023/09/22 12:38:43;;;;;;;3.72;1.10;;;17.80;99.90;;;;;;4994560;28;20046;-67
2023/09/22 12:41:13;;;;;;;2.45;1.00;;;17.80;99.90;;;;;;4978305;28;20046;-66
2023/09/22 12:43:44;;;;;;;3.08;1.00;;;17.80;99.90;;;;;;4994407;28;20394;-66
2023/09/22 12:46:12;;;;;;;3.63;1.17;;;17.90;99.90;;;;;;4963793;28;20437;-67